Time;durP1;ratioP1;P1;durP2;ratioP2;P2;SDS_P1;SDS_P2;PMS_P1;PMS_P2;Temp;Humidity;BMP_temperature;BMP_pressure;BME280_temperature;BME280_humidity;BME280_pressure;Samples;Min_cycle;Max_cycle;Signal;HPM_P1;HPM_P2
2022/01/25 00:09:09;;;;;;;48.08;32.22;;;;;;;2.25;63.90;100208.63;5091758;28;20042;-47
2022/01/25 00:28:21;;;;;;;50.17;32.83;;;;;;;1.80;65.04;100200.59;5049173;28;20139;-47
2022/01/25 00:33:27;;;;;;;140.23;113.35;;;;;;;1.73;65.40;100214.88;5049119;28;20040;-48
2022/01/25 00:35:53;;;;;;;848.58;625.63;;;;;;;1.69;65.97;100209.09;5032291;28;20021;-48
2022/01/25 00:38:19;;;;;;;178.50;127.68;;;;;;;1.78;65.66;100211.03;5049034;28;20128;-49
2022/01/25 00:40:45;;;;;;;84.55;57.28;;;;;;;1.83;65.66;100207.31;5032022;28;20487;-49
2022/01/25 00:43:10;;;;;;;62.47;40.60;;;;;;;1.92;65.12;100214.44;5048859;28;20407;-50
2022/01/25 00:45:36;;;;;;;52.78;32.33;;;;;;;2.02;64.71;100199.91;5048994;28;20491;-51
2022/01/25 00:48:04;;;;;;;52.88;31.40;;;;;;;2.08;64.70;100202.06;5048898;28;20029;-50
2022/01/25 00:50:40;;;;;;;54.47;31.85;;;;;;;2.29;64.63;100198.88;5050050;28;20029;-49
2022/01/25 00:55:33;;;;;;;52.03;33.97;;;;;;;2.74;63.42;100192.16;5095059;28;20032;-51
2022/01/25 00:58:01;;;;;;;46.42;31.55;;;;;;;2.74;62.87;100197.34;5093723;28;20023;-50
2022/01/25 01:00:28;;;;;;;54.80;36.17;;;;;;;2.41;62.81;100203.19;5094949;28;20024;-50
2022/01/25 01:02:54;;;;;;;48.63;32.88;;;;;;;2.17;63.33;100204.03;5094849;28;20432;-50
2022/01/25 01:05:20;;;;;;;42.92;32.05;;;;;;;2.06;63.87;100209.13;5094906;28;20042;-50
2022/01/25 01:07:47;;;;;;;47.65;33.15;;;;;;;2.05;63.56;100210.03;5093526;28;20116;-51
2022/01/25 01:10:17;;;;;;;48.88;32.35;;;;;;;1.93;63.53;100216.09;5093368;28;20035;-51
2022/01/25 01:32:20;;;;;;;49.55;29.92;;;;;;;1.57;65.34;100212.50;5094401;28;20105;-50
2022/01/25 01:45:09;;;;;;;51.30;33.70;;;;;;;1.65;64.88;100219.75;5051770;28;20036;-50
2022/01/25 01:47:47;;;;;;;43.80;28.73;;;;;;;1.74;64.54;100221.72;5051652;28;20037;-48
2022/01/25 01:50:25;;;;;;;48.83;29.35;;;;;;;1.58;64.62;100225.34;5051562;28;20078;-50
2022/01/25 01:52:52;;;;;;;51.38;31.90;;;;;;;1.42;64.67;100222.16;5051607;28;20071;-48
2022/01/25 01:55:18;;;;;;;45.90;28.92;;;;;;;1.46;65.44;100226.19;5051418;28;20057;-49
2022/01/25 01:57:43;;;;;;;44.22;27.75;;;;;;;1.67;65.01;100236.00;5051486;28;20056;-47
2022/01/25 02:00:10;;;;;;;42.05;28.65;;;;;;;1.76;64.68;100235.38;5034557;28;20104;-48
2022/01/25 02:02:36;;;;;;;55.33;37.72;;;;;;;1.88;64.55;100234.53;5050456;28;20082;-49
2022/01/25 02:05:01;;;;;;;45.70;32.38;;;;;;;1.89;64.19;100236.19;5051275;28;20021;-49
2022/01/25 02:07:27;;;;;;;45.92;31.52;;;;;;;1.74;64.75;100238.06;5051248;28;20040;-48
2022/01/25 02:09:53;;;;;;;46.40;31.05;;;;;;;1.57;64.52;100235.78;5034490;28;20290;-49
2022/01/25 02:12:19;;;;;;;52.33;30.63;;;;;;;1.47;65.49;100234.75;5051151;28;20017;-49
2022/01/25 02:14:47;;;;;;;44.28;27.75;;;;;;;1.49;65.26;100238.06;5088268;28;20064;-48
2022/01/25 02:23:18;;;;;;;44.30;26.92;;;;;;;1.80;64.67;100244.59;5093485;28;20039;-49
2022/01/25 02:25:45;;;;;;;46.15;28.55;;;;;;;1.80;64.16;100237.66;5093689;28;20044;-47
2022/01/25 02:28:12;;;;;;;48.13;29.13;;;;;;;1.85;64.48;100231.31;5093246;28;20025;-48
2022/01/25 02:30:39;;;;;;;40.90;27.13;;;;;;;1.90;63.94;100231.84;5091899;28;20024;-48
2022/01/25 02:33:05;;;;;;;47.50;29.75;;;;;;;1.92;64.58;100233.38;5091902;28;20046;-49
2022/01/25 02:35:31;;;;;;;45.35;29.20;;;;;;;1.92;63.72;100235.97;5093125;28;20549;-49
2022/01/25 02:37:56;;;;;;;47.58;34.03;;;;;;;1.83;64.16;100234.00;5093149;28;20026;-48
2022/01/25 02:40:22;;;;;;;45.03;28.67;;;;;;;1.75;64.18;100236.31;5091453;28;20567;-49
2022/01/25 02:42:50;;;;;;;45.78;29.38;;;;;;;1.75;64.61;100233.72;5092968;28;20440;-49
2022/01/25 02:45:17;;;;;;;45.78;29.30;;;;;;;1.79;63.98;100238.59;5092947;28;20039;-48
2022/01/25 02:50:27;;;;;;;42.88;27.25;;;;;;;1.96;63.83;100234.81;5092899;28;20035;-48
2022/01/25 02:52:52;;;;;;;45.00;29.08;;;;;;;1.98;64.16;100230.38;5092848;28;20028;-51
2022/01/25 02:55:18;;;;;;;43.28;29.40;;;;;;;2.02;63.80;100231.00;5091455;28;20032;-47
2022/01/25 02:57:48;;;;;;;43.65;30.52;;;;;;;1.95;63.31;100232.34;5091453;28;20028;-48
2022/01/25 03:00:15;;;;;;;40.38;27.88;;;;;;;1.73;64.11;100233.84;5092766;28;20111;-49
2022/01/25 03:02:41;;;;;;;47.33;29.30;;;;;;;1.77;64.52;100230.09;5092651;28;20016;-48
2022/01/25 03:05:08;;;;;;;46.60;30.15;;;;;;;1.76;63.98;100233.63;5092648;28;20097;-49
2022/01/25 03:07:37;;;;;;;42.08;27.30;;;;;;;1.75;64.51;100233.72;5091298;28;20024;-49
2022/01/25 03:10:05;;;;;;;42.97;29.65;;;;;;;1.89;63.74;100232.75;5092514;28;20016;-48
2022/01/25 03:12:39;;;;;;;45.53;28.35;;;;;;;1.80;63.61;100232.47;5092471;28;20028;-49
2022/01/25 03:15:31;;;;;;;44.17;27.48;;;;;;;1.87;63.89;100232.03;5092469;28;20042;-49
2022/01/25 03:18:01;;;;;;;44.78;27.70;;;;;;;1.90;63.86;100239.63;5092393;28;20046;-50
2022/01/25 03:20:37;;;;;;;43.78;30.05;;;;;;;1.82;63.37;100229.78;5092372;28;20051;-49
2022/01/25 03:23:17;;;;;;;41.75;28.77;;;;;;;1.77;63.86;100226.66;5092314;28;20028;-48
2022/01/25 03:25:43;;;;;;;41.95;26.15;;;;;;;1.83;64.04;100228.00;5092335;28;20755;-47
2022/01/25 03:28:09;;;;;;;43.17;29.20;;;;;;;1.84;63.66;100230.50;5092257;28;20020;-48
2022/01/25 03:30:35;;;;;;;42.45;26.25;;;;;;;1.75;62.73;100234.56;5092231;28;20028;-49
2022/01/25 03:33:00;;;;;;;46.83;30.42;;;;;;;1.63;63.68;100229.38;5092126;28;20032;-48
2022/01/25 03:35:26;;;;;;;42.60;29.08;;;;;;;1.62;64.26;100235.50;5092211;28;20042;-48
2022/01/25 03:37:52;;;;;;;41.00;27.08;;;;;;;1.68;63.93;100242.84;5092108;28;20470;-47
2022/01/25 03:40:18;;;;;;;42.03;26.88;;;;;;;1.83;63.93;100243.53;5091855;28;20101;-49
2022/01/25 03:42:45;;;;;;;40.53;27.08;;;;;;;1.91;63.55;100249.88;5092029;28;20070;-48
2022/01/25 03:45:18;;;;;;;46.65;28.30;;;;;;;1.94;63.35;100249.63;5091945;28;20047;-47
2022/01/25 03:48:00;;;;;;;40.80;29.90;;;;;;;1.94;63.52;100246.22;5092050;28;20024;-49
2022/01/25 03:50:27;;;;;;;51.85;31.52;;;;;;;1.92;63.68;100250.69;5092007;28;20084;-47
2022/01/25 03:52:53;;;;;;;47.58;30.50;;;;;;;2.18;63.10;100248.88;5090610;28;20097;-48
2022/01/25 03:55:19;;;;;;;43.53;29.33;;;;;;;2.17;62.35;100252.38;5091866;28;20016;-48
2022/01/25 03:57:45;;;;;;;42.38;29.15;;;;;;;1.94;62.70;100249.63;5091848;28;20444;-48
2022/01/25 04:00:11;;;;;;;47.00;33.13;;;;;;;1.79;62.94;100255.88;5091826;28;20035;-48
2022/01/25 04:02:46;;;;;;;48.28;32.38;;;;;;;1.56;62.73;100254.84;5091740;28;20024;-48
2022/01/25 04:05:20;;;;;;;39.03;27.70;;;;;;;1.43;63.33;100264.34;5091847;28;20115;-48
2022/01/25 04:07:50;;;;;;;42.38;27.58;;;;;;;1.46;63.95;100264.16;5090502;28;20422;-48
2022/01/25 04:10:18;;;;;;;44.25;29.83;;;;;;;1.49;63.77;100263.94;5091705;28;20035;-50
2022/01/25 04:12:45;;;;;;;45.55;29.75;;;;;;;1.55;64.39;100255.78;5091688;28;20021;-49
2022/01/25 04:15:11;;;;;;;43.15;28.05;;;;;;;1.76;64.05;100251.72;5091672;28;20505;-48
2022/01/25 04:17:38;;;;;;;48.80;27.98;;;;;;;2.07;64.28;100252.19;5091668;28;20034;-48
2022/01/25 04:20:16;;;;;;;40.08;27.90;;;;;;;2.37;63.29;100248.38;5091621;28;20042;-49
2022/01/25 04:25:27;;;;;;;39.58;26.02;;;;;;;2.62;62.44;100249.22;5092795;28;20039;-48
2022/01/25 04:27:52;;;;;;;44.05;26.75;;;;;;;2.78;62.24;100249.78;5094347;28;20432;-50
2022/01/25 04:30:19;;;;;;;39.97;27.45;;;;;;;2.86;61.33;100250.06;5095600;28;20034;-50
2022/01/25 04:32:52;;;;;;;39.78;27.42;;;;;;;2.85;60.87;100250.97;5095569;28;20524;-49
2022/01/25 04:49:04;;;;;;;44.85;27.85;;;;;;;1.62;62.52;100248.44;5095536;28;20508;-50
2022/01/25 04:51:45;;;;;;;43.80;26.15;;;;;;;1.54;62.50;100256.72;5095219;28;20024;-50
2022/01/25 04:59:53;;;;;;;38.53;23.30;;;;;;;1.39;63.49;100249.06;5095137;28;19915;-49
2022/01/25 05:04:54;;;;;;;46.33;27.35;;;;;;;1.25;63.41;100249.16;5094910;28;19923;-48
2022/01/25 05:07:38;;;;;;;40.25;28.00;;;;;;;1.27;63.85;100252.47;5095203;28;20027;-51
2022/01/25 05:10:07;;;;;;;38.25;27.27;;;;;;;1.28;63.86;100254.09;5094902;28;20378;-48
2022/01/25 05:15:18;;;;;;;42.65;28.23;;;;;;;1.21;64.02;100255.47;5094745;28;20032;-48
2022/01/25 05:17:46;;;;;;;45.58;25.65;;;;;;;1.35;63.89;100251.97;5093398;28;20032;-49
2022/01/25 05:22:55;;;;;;;37.25;25.67;;;;;;;1.30;63.43;100260.00;5094869;28;20039;-49
2022/01/25 05:25:21;;;;;;;44.67;27.35;;;;;;;1.31;63.05;100253.06;5094521;28;20414;-48
2022/01/25 05:27:47;;;;;;;41.10;27.42;;;;;;;1.30;63.04;100257.41;5094529;28;20024;-49
2022/01/25 05:30:13;;;;;;;46.10;27.05;;;;;;;1.17;62.99;100262.59;5093148;28;20061;-48
2022/01/25 05:32:39;;;;;;;44.72;26.92;;;;;;;1.06;63.67;100256.47;5094432;28;20073;-47
2022/01/25 05:35:05;;;;;;;40.45;26.75;;;;;;;1.00;64.40;100257.69;5094312;28;20024;-49
2022/01/25 05:37:41;;;;;;;56.83;33.65;;;;;;;0.99;64.12;100261.22;5093096;28;20024;-48
2022/01/25 05:40:13;;;;;;;70.68;54.38;;;;;;;1.00;64.10;100261.09;5092718;28;20480;-48
2022/01/25 05:45:37;;;;;;;41.20;25.52;;;;;;;1.15;63.92;100256.69;5094138;28;20030;-49
2022/01/25 05:48:03;;;;;;;44.20;26.35;;;;;;;1.14;63.80;100264.53;5094165;28;20051;-50
2022/01/25 05:50:29;;;;;;;47.78;27.88;;;;;;;1.31;63.94;100272.03;5094079;28;20059;-49
2022/01/25 05:52:54;;;;;;;47.20;26.67;;;;;;;1.48;63.23;100264.88;5093922;28;20052;-49
2022/01/25 05:55:20;;;;;;;41.05;26.08;;;;;;;1.60;63.00;100269.25;5094017;28;20016;-48
2022/01/25 05:57:46;;;;;;;40.03;25.88;;;;;;;1.64;62.39;100265.50;5093913;28;20107;-48
2022/01/25 06:00:12;;;;;;;45.10;26.63;;;;;;;1.57;62.45;100266.84;5093844;28;20081;-47
2022/01/25 06:02:38;;;;;;;47.65;25.73;;;;;;;1.69;63.02;100260.88;5092692;28;20035;-51
2022/01/25 06:05:05;;;;;;;49.88;26.30;;;;;;;1.74;62.56;100274.31;5092417;28;20020;-48
2022/01/25 06:07:31;;;;;;;48.08;27.38;;;;;;;1.92;62.55;100267.03;5093739;28;20383;-50
2022/01/25 06:09:56;;;;;;;53.15;27.98;;;;;;;2.28;62.36;100268.00;5092335;28;20023;-50
2022/01/25 06:12:22;;;;;;;37.38;25.90;;;;;;;2.49;61.33;100262.25;5093628;28;20057;-48
2022/01/25 06:14:48;;;;;;;47.80;25.17;;;;;;;2.54;60.86;100258.38;5092288;28;20498;-48
2022/01/25 06:17:14;;;;;;;38.35;25.83;;;;;;;2.67;61.33;100262.69;5092204;28;20494;-49
2022/01/25 06:19:39;;;;;;;43.60;25.23;;;;;;;2.87;60.60;100263.84;5092168;28;20494;-50
2022/01/25 06:22:05;;;;;;;49.58;25.25;;;;;;;2.88;60.15;100262.88;5093336;28;20019;-50
2022/01/25 06:24:31;;;;;;;40.78;26.90;;;;;;;2.70;59.71;100263.31;5092162;28;20397;-48
2022/01/25 06:26:57;;;;;;;52.63;26.80;;;;;;;2.38;59.62;100273.38;5091975;28;20039;-48
2022/01/25 06:29:22;;;;;;;42.83;26.08;;;;;;;2.18;60.50;100269.59;5093328;28;20046;-48
2022/01/25 06:31:48;;;;;;;44.88;25.25;;;;;;;2.16;60.42;100277.47;5093206;28;20072;-49
2022/01/25 06:34:16;;;;;;;44.35;27.02;;;;;;;2.13;60.28;100274.25;5093175;28;20035;-48
2022/01/25 06:36:42;;;;;;;46.38;25.42;;;;;;;1.98;60.19;100273.56;5093176;28;20016;-49
2022/01/25 06:39:08;;;;;;;52.90;24.67;;;;;;;2.06;60.33;100276.44;5092905;28;20052;-49
2022/01/25 06:41:36;;;;;;;45.05;25.58;;;;;;;1.99;60.38;100278.66;5093031;28;20520;-48
2022/01/25 06:44:02;;;;;;;43.53;27.17;;;;;;;1.79;60.10;100282.59;5092894;28;20024;-48
2022/01/25 06:46:28;;;;;;;51.08;25.58;;;;;;;1.63;60.99;100292.34;5091646;28;20115;-48
2022/01/25 06:48:54;;;;;;;46.65;26.30;;;;;;;1.58;61.25;100284.84;5092605;28;20170;-49
2022/01/25 06:51:19;;;;;;;41.33;25.92;;;;;;;1.72;61.79;100277.94;5092860;28;20031;-48
2022/01/25 06:53:46;;;;;;;38.50;25.45;;;;;;;1.86;60.74;100284.75;5092857;28;20104;-49
2022/01/25 06:56:12;;;;;;;37.78;25.90;;;;;;;1.71;60.73;100277.13;5092800;28;20030;-48
2022/01/25 06:58:40;;;;;;;42.00;25.23;;;;;;;1.50;61.32;100292.31;5091446;28;20484;-48
2022/01/25 07:01:08;;;;;;;38.17;24.73;;;;;;;1.39;61.26;100284.44;5092736;28;20028;-48
2022/01/25 07:03:34;;;;;;;43.33;25.08;;;;;;;1.24;61.43;100286.28;5092650;28;20554;-48
2022/01/25 07:05:59;;;;;;;42.42;24.15;;;;;;;1.03;61.74;100290.25;5092630;28;20052;-49
2022/01/25 07:08:25;;;;;;;37.45;24.73;;;;;;;0.90;63.13;100282.47;5092586;28;20332;-49
2022/01/25 07:10:51;;;;;;;40.83;26.70;;;;;;;0.83;63.02;100289.78;5092504;28;20060;-50
2022/01/25 07:13:16;;;;;;;41.83;26.63;;;;;;;0.77;62.82;100290.19;5092544;28;20024;-48
2022/01/25 07:15:42;;;;;;;56.65;33.53;;;;;;;0.71;62.99;100288.81;5092410;28;20024;-48
2022/01/25 07:18:08;;;;;;;45.28;28.80;;;;;;;0.66;63.17;100292.63;5091066;28;20075;-49
2022/01/25 07:20:34;;;;;;;46.58;28.70;;;;;;;0.47;63.86;100288.59;5091067;28;20069;-49
2022/01/25 07:22:59;;;;;;;43.05;28.90;;;;;;;0.41;63.40;100290.75;5092223;28;20034;-48
2022/01/25 07:25:26;;;;;;;52.35;27.95;;;;;;;0.76;64.08;100286.75;5090987;28;20024;-48
2022/01/25 07:27:52;;;;;;;58.88;27.20;;;;;;;1.61;63.67;100296.78;5092293;28;20080;-48
2022/01/25 07:30:18;;;;;;;49.08;28.52;;;;;;;2.30;62.10;100286.03;5092199;28;20013;-48
2022/01/25 07:32:44;;;;;;;48.65;25.42;;;;;;;2.66;61.17;100292.97;5092211;28;20028;-48
2022/01/25 07:35:10;;;;;;;46.03;26.63;;;;;;;3.06;60.21;100294.44;5092418;28;20460;-48
2022/01/25 07:37:35;;;;;;;52.50;26.90;;;;;;;3.27;59.71;100297.22;5090838;28;20024;-49
2022/01/25 07:40:01;;;;;;;53.83;27.48;;;;;;;3.40;59.76;100288.44;5090574;28;20390;-49
2022/01/25 07:42:29;;;;;;;57.08;28.23;;;;;;;3.90;59.23;100287.31;5090670;28;20447;-48
2022/01/25 07:44:55;;;;;;;43.03;27.45;;;;;;;4.59;58.37;100285.34;5092024;28;20370;-51
2022/01/25 07:47:21;;;;;;;51.10;26.38;;;;;;;5.23;57.40;100281.06;5090731;28;20034;-50
2022/01/25 07:49:47;;;;;;;52.83;37.35;;;;;;;6.17;55.88;100275.81;5092037;28;20024;-51
2022/01/25 07:52:14;;;;;;;46.65;28.05;;;;;;;6.98;54.58;100271.28;5092056;28;20012;-51
2022/01/25 07:54:41;;;;;;;42.47;28.35;;;;;;;7.80;52.67;100274.28;5091934;28;20089;-50
2022/01/25 07:57:07;;;;;;;46.60;25.77;;;;;;;8.58;50.85;100276.56;5091949;28;20073;-49
2022/01/25 07:59:33;;;;;;;48.55;25.02;;;;;;;9.18;49.66;100270.72;5091472;28;20028;-48
2022/01/25 08:01:59;;;;;;;51.28;27.30;;;;;;;9.86;48.22;100269.16;5073528;28;20161;-49
2022/01/25 08:04:25;;;;;;;55.65;26.65;;;;;;;10.46;46.27;100268.25;5091844;28;20443;-49
2022/01/25 08:06:51;;;;;;;55.72;29.08;;;;;;;10.85;45.25;100271.13;5091793;28;20020;-49
2022/01/25 08:09:17;;;;;;;55.25;27.13;;;;;;;10.89;43.61;100269.00;5091775;28;20535;-48
2022/01/25 08:11:43;;;;;;;52.13;26.70;;;;;;;10.26;43.09;100272.94;5091697;28;20489;-48
2022/01/25 08:14:19;;;;;;;55.88;28.30;;;;;;;9.52;43.78;100278.66;5091719;28;20032;-49
2022/01/25 08:16:48;;;;;;;54.50;29.02;;;;;;;8.83;45.08;100282.03;5091726;28;20078;-48
2022/01/25 08:19:15;;;;;;;57.35;27.45;;;;;;;8.30;45.39;100286.19;5091717;28;20480;-48
2022/01/25 08:21:41;;;;;;;44.25;27.45;;;;;;;7.84;46.49;100285.28;5090287;28;20077;-49
2022/01/25 08:24:09;;;;;;;48.55;26.50;;;;;;;7.56;46.52;100285.22;5090312;28;20109;-49
2022/01/25 08:26:35;;;;;;;71.65;54.97;;;;;;;7.45;46.70;100285.41;5091595;28;20024;-49
2022/01/25 08:29:01;;;;;;;79.30;47.58;;;;;;;7.45;47.82;100282.78;5091528;28;20031;-50
2022/01/25 08:31:27;;;;;;;81.18;54.45;;;;;;;7.94;47.04;100278.22;5091573;28;20048;-48
2022/01/25 08:33:53;;;;;;;56.17;30.60;;;;;;;8.54;46.51;100283.88;5091518;28;20139;-49
2022/01/25 08:36:19;;;;;;;74.72;32.03;;;;;;;9.10;45.64;100281.94;5091540;28;20024;-50
2022/01/25 08:38:45;;;;;;;47.35;27.88;;;;;;;9.80;44.78;100281.94;5089915;28;20135;-49
2022/01/25 08:41:12;;;;;;;61.97;28.65;;;;;;;10.47;43.76;100275.19;5090243;28;20028;-50
2022/01/25 08:43:38;;;;;;;58.38;27.50;;;;;;;11.28;42.40;100273.59;5091360;28;20066;-48
2022/01/25 08:46:03;;;;;;;44.88;26.65;;;;;;;11.82;40.83;100273.00;5091412;28;20023;-49
2022/01/25 08:48:29;;;;;;;58.85;30.05;;;;;;;11.90;40.27;100270.38;5090116;28;20509;-49
2022/01/25 08:50:55;;;;;;;50.80;28.65;;;;;;;12.34;40.00;100275.13;5091372;28;20032;-50
2022/01/25 08:53:21;;;;;;;41.70;26.80;;;;;;;12.92;39.13;100276.41;5091428;28;20023;-49
2022/01/25 08:55:47;;;;;;;45.38;27.92;;;;;;;13.16;38.33;100278.03;5089971;28;20036;-50
2022/01/25 08:58:13;;;;;;;47.17;28.77;;;;;;;13.54;37.82;100277.22;5090042;28;20027;-50
2022/01/25 09:00:39;;;;;;;49.70;28.08;;;;;;;14.02;36.85;100276.88;5091353;28;20032;-50
2022/01/25 09:03:05;;;;;;;46.67;29.08;;;;;;;14.56;36.04;100281.81;5089950;28;20154;-50
2022/01/25 09:05:31;;;;;;;58.35;28.17;;;;;;;15.12;35.29;100273.19;5091256;28;20371;-49
2022/01/25 09:07:58;;;;;;;49.75;28.92;;;;;;;15.58;34.33;100267.44;5091228;28;20042;-50
2022/01/25 09:10:28;;;;;;;53.55;28.98;;;;;;;16.08;34.20;100272.63;5091235;28;20051;-51
2022/01/25 09:12:55;;;;;;;44.60;28.92;;;;;;;16.60;32.67;100276.47;5094323;28;20497;-51
2022/01/25 09:15:21;;;;;;;44.28;28.42;;;;;;;16.93;32.06;100281.84;5095039;28;20389;-51
2022/01/25 09:17:47;;;;;;;49.08;27.58;;;;;;;17.39;31.48;100282.06;5094592;28;20028;-50
2022/01/25 09:20:13;;;;;;;42.35;27.23;;;;;;;17.83;30.80;100281.41;5093383;28;20093;-50
2022/01/25 09:22:38;;;;;;;44.30;28.70;;;;;;;18.23;30.17;100280.44;5094527;28;20552;-51
2022/01/25 09:25:05;;;;;;;38.40;28.58;;;;;;;18.66;29.88;100272.66;5094617;28;20154;-50
2022/01/25 09:27:30;;;;;;;38.13;28.08;;;;;;;19.04;29.14;100276.31;5093214;28;20021;-50
2022/01/25 09:29:56;;;;;;;58.97;30.02;;;;;;;19.49;28.64;100270.78;5093234;28;20189;-50
2022/01/25 09:32:22;;;;;;;52.97;28.30;;;;;;;19.69;28.17;100263.41;5093342;28;20031;-51
2022/01/25 09:34:49;;;;;;;48.42;28.75;;;;;;;19.75;27.92;100262.56;5094450;28;20038;-51
2022/01/25 09:37:15;;;;;;;48.65;28.75;;;;;;;19.99;27.55;100268.03;5094347;28;20028;-50
2022/01/25 09:39:41;;;;;;;62.15;29.00;;;;;;;20.23;27.26;100265.50;5094065;28;20036;-49
2022/01/25 09:42:09;;;;;;;52.80;29.25;;;;;;;20.59;26.85;100266.47;5094189;28;20420;-50
2022/01/25 09:44:40;;;;;;;44.80;27.70;;;;;;;20.81;26.92;100264.09;5094108;28;20027;-51
2022/01/25 09:47:07;;;;;;;34.80;29.67;;;;;;;20.60;26.28;100268.09;5094171;28;20057;-50
2022/01/25 09:49:34;;;;;;;33.50;27.55;;;;;;;20.54;26.66;100262.59;5094085;28;20017;-51
2022/01/25 09:52:02;;;;;;;39.95;28.40;;;;;;;20.83;25.84;100259.34;5094109;28;20050;-49
2022/01/25 09:54:31;;;;;;;38.13;28.08;;;;;;;21.17;26.01;100262.28;5092682;28;20024;-51
2022/01/25 09:56:58;;;;;;;32.72;27.75;;;;;;;21.33;25.35;100270.44;5092607;28;20036;-51
2022/01/25 09:59:26;;;;;;;34.33;30.45;;;;;;;21.31;25.39;100267.19;5094159;28;20123;-51
2022/01/25 10:01:53;;;;;;;36.13;28.52;;;;;;;21.10;25.86;100268.53;5093790;28;20440;-51
2022/01/25 10:04:39;;;;;;;33.75;28.20;;;;;;;21.42;25.86;100273.56;5093808;28;20020;-51
2022/01/25 10:07:08;;;;;;;38.00;28.02;;;;;;;21.69;25.21;100273.09;5094084;28;20405;-51
2022/01/25 10:09:34;;;;;;;40.58;28.23;;;;;;;22.05;24.94;100276.50;5093637;28;20012;-50
2022/01/25 10:12:25;;;;;;;34.75;27.02;;;;;;;22.37;24.57;100274.22;5093899;28;20031;-51
2022/01/25 10:15:00;;;;;;;34.88;27.42;;;;;;;22.58;24.14;100274.59;5092329;28;20020;-50
2022/01/25 10:17:33;;;;;;;41.40;27.70;;;;;;;22.69;23.61;100282.56;5093639;28;20102;-50
2022/01/25 10:19:59;;;;;;;42.60;28.52;;;;;;;22.85;23.34;100274.78;5109549;28;20055;-51
2022/01/25 10:22:25;;;;;;;42.72;28.55;;;;;;;22.87;23.57;100278.03;5091843;28;20572;-50
2022/01/25 10:24:50;;;;;;;40.50;28.58;;;;;;;22.91;23.44;100279.97;5091692;28;20020;-51
2022/01/25 10:27:16;;;;;;;40.00;27.35;;;;;;;22.75;23.31;100275.44;5093361;28;20032;-51
2022/01/25 10:29:42;;;;;;;36.35;28.38;;;;;;;22.67;23.48;100275.81;5093366;28;20050;-51
2022/01/25 10:32:14;;;;;;;46.90;30.58;;;;;;;22.79;23.58;100278.44;5091953;28;20024;-51
2022/01/25 10:34:49;;;;;;;38.05;27.67;;;;;;;22.80;23.69;100280.88;5093134;28;20485;-51
2022/01/25 10:37:22;;;;;;;44.03;28.25;;;;;;;22.94;23.08;100271.47;5093099;28;20076;-51
2022/01/25 10:39:52;;;;;;;34.58;29.05;;;;;;;23.16;23.08;100269.94;5092961;28;20048;-51
2022/01/25 10:42:23;;;;;;;36.10;28.05;;;;;;;23.17;23.38;100267.03;5092927;28;20056;-50
2022/01/25 10:45:03;;;;;;;39.30;27.83;;;;;;;23.40;23.40;100265.22;5093286;28;20436;-50
2022/01/25 10:47:45;;;;;;;32.92;28.17;;;;;;;23.55;22.81;100254.72;5093075;28;20028;-52
2022/01/25 10:50:27;;;;;;;35.53;27.20;;;;;;;23.41;22.99;100264.19;5092938;28;20028;-50
2022/01/25 10:53:16;;;;;;;40.97;34.40;;;;;;;23.33;22.90;100260.84;5092910;28;20028;-51
2022/01/25 10:55:45;;;;;;;51.33;40.40;;;;;;;23.11;23.03;100262.66;5092891;28;20031;-51
2022/01/25 10:58:11;;;;;;;54.22;45.58;;;;;;;22.79;22.94;100257.84;5091496;28;20031;-50
2022/01/25 11:00:42;;;;;;;1999.90;880.08;;;;;;;22.08;23.79;100263.47;5091385;28;20027;-50
2022/01/25 11:03:08;;;;;;;869.47;436.05;;;;;;;21.46;24.30;100260.56;5091379;28;20481;-51
2022/01/25 11:05:39;;;;;;;411.98;191.45;;;;;;;20.80;25.28;100260.59;5091301;28;20028;-50
2022/01/25 11:08:16;;;;;;;386.65;177.88;;;;;;;20.40;26.18;100261.16;5091362;28;20556;-50
2022/01/25 11:10:55;;;;;;;172.48;87.07;;;;;;;20.70;25.88;100249.69;5091272;28;20127;-50
2022/01/25 11:15:57;;;;;;;130.90;76.57;;;;;;;21.60;25.12;100253.94;5092529;28;20063;-50
2022/01/25 11:18:23;;;;;;;88.22;49.22;;;;;;;21.84;24.62;100251.25;5091064;28;20031;-51
2022/01/25 11:20:50;;;;;;;83.03;50.20;;;;;;;21.60;24.89;100253.13;5092363;28;20016;-51
2022/01/25 11:23:17;;;;;;;80.93;47.10;;;;;;;21.32;25.12;100254.63;5090959;28;20490;-51
2022/01/25 11:25:45;;;;;;;62.08;39.42;;;;;;;21.15;25.84;100257.19;5092340;28;20028;-50
2022/01/25 11:28:12;;;;;;;78.25;46.50;;;;;;;20.78;26.10;100248.53;5092344;28;20024;-52
2022/01/25 11:30:40;;;;;;;55.67;36.25;;;;;;;20.32;26.64;100246.31;5090813;28;20417;-51
2022/01/25 11:33:09;;;;;;;56.88;36.17;;;;;;;20.12;27.09;100246.56;5092206;28;20024;-50
2022/01/25 11:35:36;;;;;;;38.75;31.40;;;;;;;20.09;27.17;100238.19;5089873;28;20016;-51
2022/01/25 11:38:04;;;;;;;47.90;32.30;;;;;;;19.94;27.29;100239.41;5092155;28;20026;-51
2022/01/25 11:40:37;;;;;;;41.00;30.67;;;;;;;19.93;27.33;100234.28;5091934;28;20498;-50
2022/01/25 11:43:12;;;;;;;45.67;30.83;;;;;;;20.43;27.02;100234.03;5092077;28;20562;-50
2022/01/25 11:45:42;;;;;;;42.30;32.60;;;;;;;20.74;26.53;100229.50;5090750;28;20027;-50
2022/01/25 11:48:08;;;;;;;36.97;30.08;;;;;;;20.81;26.61;100230.22;5092346;28;20032;-50
2022/01/25 11:50:40;;;;;;;41.55;30.48;;;;;;;20.97;26.65;100226.06;5090566;28;20490;-51
2022/01/25 11:53:08;;;;;;;32.42;28.63;;;;;;;21.15;26.06;100219.81;5092078;28;20028;-51
2022/01/25 11:55:42;;;;;;;41.08;29.83;;;;;;;21.38;25.83;100218.97;5090620;28;20504;-52
2022/01/25 11:58:08;;;;;;;37.08;28.90;;;;;;;21.54;25.52;100220.16;5090535;28;20016;-52
2022/01/25 12:00:38;;;;;;;34.65;28.23;;;;;;;21.67;25.81;100217.22;5091849;28;20028;-51
2022/01/25 12:03:33;;;;;;;36.05;29.30;;;;;;;21.63;25.97;100212.56;5090453;28;20402;-50
2022/01/25 12:06:05;;;;;;;42.88;28.70;;;;;;;21.46;26.09;100215.16;5091864;28;20107;-50
2022/01/25 12:09:08;;;;;;;34.63;27.67;;;;;;;21.40;25.61;100206.19;5091810;28;20024;-52
2022/01/25 12:11:45;;;;;;;32.75;27.88;;;;;;;21.25;25.88;100206.69;5089498;28;20051;-51
2022/01/25 12:14:11;;;;;;;35.67;28.67;;;;;;;21.28;26.32;100200.88;5091764;28;20024;-52
2022/01/25 12:16:43;;;;;;;38.92;30.48;;;;;;;20.85;26.07;100202.03;5092025;28;20472;-50
2022/01/25 12:19:11;;;;;;;40.75;30.95;;;;;;;20.46;26.76;100196.22;5090406;28;20505;-51
2022/01/25 12:21:47;;;;;;;41.70;30.80;;;;;;;20.64;27.02;100194.56;5090370;28;20032;-49
2022/01/25 12:24:22;;;;;;;33.97;28.08;;;;;;;20.84;26.53;100188.91;5091512;28;20027;-50
2022/01/25 12:27:25;;;;;;;40.42;28.58;;;;;;;20.70;26.92;100188.31;5090308;28;20039;-50
2022/01/25 12:30:09;;;;;;;35.05;28.77;;;;;;;21.02;26.65;100183.47;5091974;28;20112;-51
2022/01/25 12:32:37;;;;;;;42.97;28.95;;;;;;;21.28;26.07;100182.16;5091679;28;20035;-50
2022/01/25 12:35:11;;;;;;;33.72;28.30;;;;;;;21.18;26.29;100175.81;5090261;28;20390;-51
2022/01/25 12:37:46;;;;;;;31.05;27.70;;;;;;;21.03;26.09;100174.44;5091684;28;20028;-50
2022/01/25 12:40:30;;;;;;;31.33;26.98;;;;;;;20.51;26.68;100171.56;5091403;28;20137;-51
2022/01/25 12:43:03;;;;;;;32.25;26.92;;;;;;;20.14;27.22;100167.19;5091596;28;20016;-50
2022/01/25 12:45:32;;;;;;;303.00;275.85;;;;;;;20.37;27.00;100170.94;5091507;28;20028;-51
2022/01/25 12:48:06;;;;;;;355.17;317.73;;;;;;;20.47;27.28;100165.88;5093702;28;20371;-51
2022/01/25 12:50:34;;;;;;;118.50;106.07;;;;;;;20.42;26.90;100162.25;5094011;28;20508;-50
2022/01/25 12:53:01;;;;;;;90.63;79.88;;;;;;;20.03;27.68;100154.63;5093957;28;20024;-49
2022/01/25 12:55:31;;;;;;;75.78;54.42;;;;;;;20.31;27.70;100153.19;5095195;28;20024;-50
2022/01/25 12:57:57;;;;;;;51.03;42.67;;;;;;;20.22;27.54;100150.06;5095149;28;20024;-51
2022/01/25 13:00:33;;;;;;;44.00;37.15;;;;;;;20.18;27.72;100145.38;5093747;28;20028;-50
2022/01/25 13:03:17;;;;;;;43.45;32.38;;;;;;;20.27;27.63;100139.50;5093676;28;20025;-50
2022/01/25 13:05:51;;;;;;;40.85;36.55;;;;;;;20.17;27.82;100143.78;5094990;28;20024;-50